sensor_id;sensor_type;location;lat;lon;timestamp;P1;durP1;ratioP1;P2;durP2;ratioP2
21034;SDS011;10676;50.848;3.272;2023-07-29T00:01:41;4.18;;;3.78;;
21034;SDS011;10676;50.848;3.272;2023-07-29T00:04:07;5.63;;;3.90;;
21034;SDS011;10676;50.848;3.272;2023-07-29T00:06:36;5.10;;;3.55;;
21034;SDS011;10676;50.848;3.272;2023-07-29T00:09:02;4.70;;;4.20;;
21034;SDS011;10676;50.848;3.272;2023-07-29T00:11:28;6.10;;;3.67;;
21034;SDS011;10676;50.848;3.272;2023-07-29T00:13:54;8.00;;;4.05;;
21034;SDS011;10676;50.848;3.272;2023-07-29T00:16:20;4.53;;;4.07;;
21034;SDS011;10676;50.848;3.272;2023-07-29T00:18:48;7.28;;;3.90;;
21034;SDS011;10676;50.848;3.272;2023-07-29T00:21:14;7.10;;;3.45;;
21034;SDS011;10676;50.848;3.272;2023-07-29T00:23:40;4.85;;;3.72;;
21034;SDS011;10676;50.848;3.272;2023-07-29T00:26:06;4.25;;;3.45;;
21034;SDS011;10676;50.848;3.272;2023-07-29T00:28:31;4.10;;;3.55;;
21034;SDS011;10676;50.848;3.272;2023-07-29T00:30:57;4.60;;;3.50;;
21034;SDS011;10676;50.848;3.272;2023-07-29T00:33:23;4.53;;;3.38;;
21034;SDS011;10676;50.848;3.272;2023-07-29T00:35:48;5.50;;;3.90;;
21034;SDS011;10676;50.848;3.272;2023-07-29T00:38:14;5.53;;;3.22;;
21034;SDS011;10676;50.848;3.272;2023-07-29T00:40:40;6.18;;;3.28;;
21034;SDS011;10676;50.848;3.272;2023-07-29T00:43:05;5.03;;;3.45;;
21034;SDS011;10676;50.848;3.272;2023-07-29T00:45:31;5.05;;;3.53;;
21034;SDS011;10676;50.848;3.272;2023-07-29T00:47:58;6.03;;;3.45;;
21034;SDS011;10676;50.848;3.272;2023-07-29T00:50:25;5.40;;;3.60;;
21034;SDS011;10676;50.848;3.272;2023-07-29T00:52:52;4.00;;;3.40;;
21034;SDS011;10676;50.848;3.272;2023-07-29T00:55:19;6.32;;;3.80;;
21034;SDS011;10676;50.848;3.272;2023-07-29T00:57:45;7.80;;;3.28;;
21034;SDS011;10676;50.848;3.272;2023-07-29T01:00:13;6.35;;;3.42;;
21034;SDS011;10676;50.848;3.272;2023-07-29T01:02:40;5.43;;;3.45;;
21034;SDS011;10676;50.848;3.272;2023-07-29T01:05:07;6.80;;;4.00;;
21034;SDS011;10676;50.848;3.272;2023-07-29T01:10:10;4.40;;;3.42;;
21034;SDS011;10676;50.848;3.272;2023-07-29T01:18:18;8.70;;;6.22;;
21034;SDS011;10676;50.848;3.272;2023-07-29T01:20:49;6.88;;;5.07;;
21034;SDS011;10676;50.848;3.272;2023-07-29T01:23:25;7.97;;;4.97;;
21034;SDS011;10676;50.848;3.272;2023-07-29T01:25:55;6.00;;;3.72;;
21034;SDS011;10676;50.848;3.272;2023-07-29T01:28:20;8.10;;;5.07;;
21034;SDS011;10676;50.848;3.272;2023-07-29T01:30:46;6.50;;;3.90;;
21034;SDS011;10676;50.848;3.272;2023-07-29T01:33:17;4.40;;;3.65;;
21034;SDS011;10676;50.848;3.272;2023-07-29T01:35:52;5.70;;;3.42;;
21034;SDS011;10676;50.848;3.272;2023-07-29T01:38:33;4.45;;;3.58;;
21034;SDS011;10676;50.848;3.272;2023-07-29T01:41:00;4.35;;;3.03;;
21034;SDS011;10676;50.848;3.272;2023-07-29T01:43:30;3.40;;;3.10;;
21034;SDS011;10676;50.848;3.272;2023-07-29T01:45:56;4.70;;;2.80;;
21034;SDS011;10676;50.848;3.272;2023-07-29T01:48:22;5.50;;;3.78;;
21034;SDS011;10676;50.848;3.272;2023-07-29T01:50:48;5.40;;;3.88;;
21034;SDS011;10676;50.848;3.272;2023-07-29T01:53:14;6.18;;;3.35;;
21034;SDS011;10676;50.848;3.272;2023-07-29T01:55:40;5.80;;;2.38;;
21034;SDS011;10676;50.848;3.272;2023-07-29T01:58:09;3.17;;;2.60;;
21034;SDS011;10676;50.848;3.272;2023-07-29T02:00:35;4.07;;;2.63;;
21034;SDS011;10676;50.848;3.272;2023-07-29T02:03:00;6.70;;;3.00;;
21034;SDS011;10676;50.848;3.272;2023-07-29T02:05:26;10.10;;;3.67;;
21034;SDS011;10676;50.848;3.272;2023-07-29T02:07:52;7.57;;;3.45;;
21034;SDS011;10676;50.848;3.272;2023-07-29T02:10:17;5.22;;;3.13;;
21034;SDS011;10676;50.848;3.272;2023-07-29T02:12:43;4.18;;;3.25;;
21034;SDS011;10676;50.848;3.272;2023-07-29T02:15:09;4.15;;;3.10;;
21034;SDS011;10676;50.848;3.272;2023-07-29T02:17:34;5.43;;;3.45;;
21034;SDS011;10676;50.848;3.272;2023-07-29T02:20:00;3.88;;;3.22;;
21034;SDS011;10676;50.848;3.272;2023-07-29T02:22:26;6.13;;;2.67;;
21034;SDS011;10676;50.848;3.272;2023-07-29T02:24:52;6.10;;;2.90;;
21034;SDS011;10676;50.848;3.272;2023-07-29T02:27:17;6.45;;;4.55;;
21034;SDS011;10676;50.848;3.272;2023-07-29T02:29:43;4.05;;;3.60;;
21034;SDS011;10676;50.848;3.272;2023-07-29T02:32:09;5.05;;;3.30;;
21034;SDS011;10676;50.848;3.272;2023-07-29T02:34:34;4.22;;;2.70;;
21034;SDS011;10676;50.848;3.272;2023-07-29T02:37:00;4.03;;;2.72;;
21034;SDS011;10676;50.848;3.272;2023-07-29T02:39:25;4.35;;;3.03;;
21034;SDS011;10676;50.848;3.272;2023-07-29T02:41:51;3.70;;;2.80;;
21034;SDS011;10676;50.848;3.272;2023-07-29T02:44:17;4.18;;;2.88;;
21034;SDS011;10676;50.848;3.272;2023-07-29T02:46:44;3.13;;;2.78;;
21034;SDS011;10676;50.848;3.272;2023-07-29T02:49:10;4.00;;;2.80;;
21034;SDS011;10676;50.848;3.272;2023-07-29T02:51:35;5.80;;;3.58;;
21034;SDS011;10676;50.848;3.272;2023-07-29T02:54:01;3.72;;;3.33;;
21034;SDS011;10676;50.848;3.272;2023-07-29T02:56:27;3.92;;;3.10;;
21034;SDS011;10676;50.848;3.272;2023-07-29T02:58:53;6.30;;;3.25;;
21034;SDS011;10676;50.848;3.272;2023-07-29T03:01:18;5.05;;;3.22;;
21034;SDS011;10676;50.848;3.272;2023-07-29T03:03:44;4.93;;;3.40;;
21034;SDS011;10676;50.848;3.272;2023-07-29T03:06:10;3.65;;;3.25;;
21034;SDS011;10676;50.848;3.272;2023-07-29T03:08:38;6.05;;;2.80;;
21034;SDS011;10676;50.848;3.272;2023-07-29T03:11:08;4.28;;;3.38;;
21034;SDS011;10676;50.848;3.272;2023-07-29T03:13:35;4.28;;;3.15;;
21034;SDS011;10676;50.848;3.272;2023-07-29T03:16:19;4.00;;;3.38;;
21034;SDS011;10676;50.848;3.272;2023-07-29T03:18:46;6.32;;;3.53;;
21034;SDS011;10676;50.848;3.272;2023-07-29T03:21:13;6.32;;;3.30;;
21034;SDS011;10676;50.848;3.272;2023-07-29T03:23:39;4.72;;;2.70;;
21034;SDS011;10676;50.848;3.272;2023-07-29T03:26:05;4.00;;;2.53;;
21034;SDS011;10676;50.848;3.272;2023-07-29T03:28:40;8.32;;;2.90;;
21034;SDS011;10676;50.848;3.272;2023-07-29T03:31:07;7.20;;;2.50;;
21034;SDS011;10676;50.848;3.272;2023-07-29T03:33:33;4.35;;;2.75;;
21034;SDS011;10676;50.848;3.272;2023-07-29T03:35:59;3.95;;;2.50;;
21034;SDS011;10676;50.848;3.272;2023-07-29T03:38:24;2.95;;;2.50;;
21034;SDS011;10676;50.848;3.272;2023-07-29T03:40:50;5.07;;;2.65;;
21034;SDS011;10676;50.848;3.272;2023-07-29T03:43:16;2.67;;;2.45;;
21034;SDS011;10676;50.848;3.272;2023-07-29T03:45:42;3.33;;;2.63;;
21034;SDS011;10676;50.848;3.272;2023-07-29T03:48:07;4.22;;;2.45;;
21034;SDS011;10676;50.848;3.272;2023-07-29T03:50:34;3.33;;;2.33;;
21034;SDS011;10676;50.848;3.272;2023-07-29T03:53:00;3.22;;;2.30;;
21034;SDS011;10676;50.848;3.272;2023-07-29T03:55:26;4.57;;;2.85;;
21034;SDS011;10676;50.848;3.272;2023-07-29T03:57:52;3.78;;;2.78;;
21034;SDS011;10676;50.848;3.272;2023-07-29T04:00:18;4.25;;;3.17;;
21034;SDS011;10676;50.848;3.272;2023-07-29T04:02:43;3.33;;;3.00;;
21034;SDS011;10676;50.848;3.272;2023-07-29T04:05:10;5.38;;;3.20;;
21034;SDS011;10676;50.848;3.272;2023-07-29T04:07:36;5.75;;;3.50;;
21034;SDS011;10676;50.848;3.272;2023-07-29T04:10:02;3.90;;;3.20;;
21034;SDS011;10676;50.848;3.272;2023-07-29T04:12:28;3.75;;;3.45;;
21034;SDS011;10676;50.848;3.272;2023-07-29T04:14:54;5.13;;;3.58;;
21034;SDS011;10676;50.848;3.272;2023-07-29T04:17:20;4.88;;;3.40;;
21034;SDS011;10676;50.848;3.272;2023-07-29T04:19:45;3.80;;;3.42;;
21034;SDS011;10676;50.848;3.272;2023-07-29T04:22:11;3.83;;;3.10;;
21034;SDS011;10676;50.848;3.272;2023-07-29T04:24:37;3.92;;;3.25;;
21034;SDS011;10676;50.848;3.272;2023-07-29T04:27:03;4.70;;;3.28;;
21034;SDS011;10676;50.848;3.272;2023-07-29T04:29:29;4.07;;;3.53;;
21034;SDS011;10676;50.848;3.272;2023-07-29T04:31:54;4.13;;;3.15;;
21034;SDS011;10676;50.848;3.272;2023-07-29T04:34:20;5.25;;;3.30;;
21034;SDS011;10676;50.848;3.272;2023-07-29T04:36:46;5.78;;;3.65;;
21034;SDS011;10676;50.848;3.272;2023-07-29T04:39:12;5.93;;;3.53;;
21034;SDS011;10676;50.848;3.272;2023-07-29T04:41:38;3.28;;;2.95;;
21034;SDS011;10676;50.848;3.272;2023-07-29T04:44:04;5.13;;;3.38;;
21034;SDS011;10676;50.848;3.272;2023-07-29T04:46:30;5.50;;;3.28;;
21034;SDS011;10676;50.848;3.272;2023-07-29T04:48:55;4.85;;;3.20;;
21034;SDS011;10676;50.848;3.272;2023-07-29T04:51:21;6.10;;;3.90;;
21034;SDS011;10676;50.848;3.272;2023-07-29T04:53:48;4.53;;;4.13;;
21034;SDS011;10676;50.848;3.272;2023-07-29T04:56:14;4.75;;;3.92;;
21034;SDS011;10676;50.848;3.272;2023-07-29T04:58:40;5.20;;;4.50;;
21034;SDS011;10676;50.848;3.272;2023-07-29T05:01:05;4.68;;;4.28;;
21034;SDS011;10676;50.848;3.272;2023-07-29T05:03:31;5.10;;;3.67;;
21034;SDS011;10676;50.848;3.272;2023-07-29T05:05:57;3.63;;;3.08;;
21034;SDS011;10676;50.848;3.272;2023-07-29T05:08:24;6.10;;;2.78;;
21034;SDS011;10676;50.848;3.272;2023-07-29T05:10:51;3.70;;;2.45;;
21034;SDS011;10676;50.848;3.272;2023-07-29T05:13:18;2.92;;;2.00;;
21034;SDS011;10676;50.848;3.272;2023-07-29T05:15:44;5.30;;;2.00;;
21034;SDS011;10676;50.848;3.272;2023-07-29T05:18:10;2.55;;;1.60;;
21034;SDS011;10676;50.848;3.272;2023-07-29T05:20:36;3.97;;;1.63;;
21034;SDS011;10676;50.848;3.272;2023-07-29T05:23:02;3.72;;;1.70;;
21034;SDS011;10676;50.848;3.272;2023-07-29T05:25:28;2.85;;;1.38;;
21034;SDS011;10676;50.848;3.272;2023-07-29T05:27:54;6.00;;;1.15;;
21034;SDS011;10676;50.848;3.272;2023-07-29T05:30:19;2.95;;;1.25;;
21034;SDS011;10676;50.848;3.272;2023-07-29T05:32:45;6.47;;;1.38;;
21034;SDS011;10676;50.848;3.272;2023-07-29T05:35:11;2.42;;;1.30;;
21034;SDS011;10676;50.848;3.272;2023-07-29T05:37:39;2.08;;;1.30;;
21034;SDS011;10676;50.848;3.272;2023-07-29T05:40:06;1.40;;;1.10;;
21034;SDS011;10676;50.848;3.272;2023-07-29T05:42:32;1.15;;;1.05;;
21034;SDS011;10676;50.848;3.272;2023-07-29T05:44:58;2.30;;;1.50;;
21034;SDS011;10676;50.848;3.272;2023-07-29T05:47:24;3.53;;;1.45;;
21034;SDS011;10676;50.848;3.272;2023-07-29T05:49:50;1.92;;;1.05;;
21034;SDS011;10676;50.848;3.272;2023-07-29T05:52:15;1.45;;;1.00;;
21034;SDS011;10676;50.848;3.272;2023-07-29T05:54:41;2.60;;;1.13;;
21034;SDS011;10676;50.848;3.272;2023-07-29T05:57:08;2.38;;;1.10;;
21034;SDS011;10676;50.848;3.272;2023-07-29T05:59:35;4.68;;;1.25;;
21034;SDS011;10676;50.848;3.272;2023-07-29T06:02:00;2.58;;;1.13;;
21034;SDS011;10676;50.848;3.272;2023-07-29T06:04:26;2.65;;;1.38;;
21034;SDS011;10676;50.848;3.272;2023-07-29T06:06:52;1.83;;;1.10;;
21034;SDS011;10676;50.848;3.272;2023-07-29T06:09:18;1.77;;;1.20;;
21034;SDS011;10676;50.848;3.272;2023-07-29T06:11:43;3.65;;;1.30;;
21034;SDS011;10676;50.848;3.272;2023-07-29T06:14:09;3.75;;;1.58;;
21034;SDS011;10676;50.848;3.272;2023-07-29T06:16:34;3.08;;;1.20;;
21034;SDS011;10676;50.848;3.272;2023-07-29T06:19:00;2.03;;;1.30;;
21034;SDS011;10676;50.848;3.272;2023-07-29T06:21:26;1.75;;;1.02;;
21034;SDS011;10676;50.848;3.272;2023-07-29T06:23:51;1.52;;;1.10;;
21034;SDS011;10676;50.848;3.272;2023-07-29T06:26:17;3.00;;;1.23;;
21034;SDS011;10676;50.848;3.272;2023-07-29T06:28:43;4.40;;;1.17;;
21034;SDS011;10676;50.848;3.272;2023-07-29T06:31:09;1.67;;;1.08;;
21034;SDS011;10676;50.848;3.272;2023-07-29T06:33:35;3.33;;;1.20;;
21034;SDS011;10676;50.848;3.272;2023-07-29T06:36:01;1.73;;;1.13;;
21034;SDS011;10676;50.848;3.272;2023-07-29T06:38:26;3.13;;;1.30;;
21034;SDS011;10676;50.848;3.272;2023-07-29T06:40:52;1.67;;;0.90;;
21034;SDS011;10676;50.848;3.272;2023-07-29T06:43:18;1.45;;;1.02;;
21034;SDS011;10676;50.848;3.272;2023-07-29T06:45:43;3.08;;;1.02;;
21034;SDS011;10676;50.848;3.272;2023-07-29T06:48:09;3.53;;;1.13;;
21034;SDS011;10676;50.848;3.272;2023-07-29T06:50:35;1.92;;;1.23;;
21034;SDS011;10676;50.848;3.272;2023-07-29T06:53:00;2.17;;;1.00;;
21034;SDS011;10676;50.848;3.272;2023-07-29T06:55:26;2.35;;;1.10;;
21034;SDS011;10676;50.848;3.272;2023-07-29T06:57:52;1.40;;;1.10;;
21034;SDS011;10676;50.848;3.272;2023-07-29T07:00:17;1.42;;;1.20;;
21034;SDS011;10676;50.848;3.272;2023-07-29T07:02:43;2.60;;;1.15;;
21034;SDS011;10676;50.848;3.272;2023-07-29T07:05:09;2.88;;;1.23;;
21034;SDS011;10676;50.848;3.272;2023-07-29T07:07:34;3.40;;;0.88;;
21034;SDS011;10676;50.848;3.272;2023-07-29T07:10:00;1.98;;;0.80;;
21034;SDS011;10676;50.848;3.272;2023-07-29T07:12:26;2.28;;;1.00;;
21034;SDS011;10676;50.848;3.272;2023-07-29T07:14:52;3.38;;;1.00;;
21034;SDS011;10676;50.848;3.272;2023-07-29T07:17:17;2.70;;;0.80;;
21034;SDS011;10676;50.848;3.272;2023-07-29T07:19:43;0.85;;;0.80;;
21034;SDS011;10676;50.848;3.272;2023-07-29T07:22:09;1.00;;;0.70;;
21034;SDS011;10676;50.848;3.272;2023-07-29T07:24:34;1.98;;;0.80;;
21034;SDS011;10676;50.848;3.272;2023-07-29T07:27:00;2.05;;;0.82;;
21034;SDS011;10676;50.848;3.272;2023-07-29T07:29:26;1.50;;;0.75;;
21034;SDS011;10676;50.848;3.272;2023-07-29T07:31:52;2.88;;;0.93;;
21034;SDS011;10676;50.848;3.272;2023-07-29T07:34:19;2.15;;;0.90;;
21034;SDS011;10676;50.848;3.272;2023-07-29T07:36:46;2.00;;;0.80;;
21034;SDS011;10676;50.848;3.272;2023-07-29T07:39:12;1.67;;;0.98;;
21034;SDS011;10676;50.848;3.272;2023-07-29T07:41:37;1.75;;;1.05;;
21034;SDS011;10676;50.848;3.272;2023-07-29T07:44:03;2.15;;;0.90;;
21034;SDS011;10676;50.848;3.272;2023-07-29T07:46:29;2.63;;;0.90;;
21034;SDS011;10676;50.848;3.272;2023-07-29T07:48:54;1.77;;;0.90;;
21034;SDS011;10676;50.848;3.272;2023-07-29T07:51:20;1.95;;;0.90;;
21034;SDS011;10676;50.848;3.272;2023-07-29T07:53:46;2.05;;;1.17;;
21034;SDS011;10676;50.848;3.272;2023-07-29T07:56:12;2.28;;;0.90;;
21034;SDS011;10676;50.848;3.272;2023-07-29T07:58:37;1.80;;;0.90;;
21034;SDS011;10676;50.848;3.272;2023-07-29T08:01:04;1.38;;;1.00;;
21034;SDS011;10676;50.848;3.272;2023-07-29T08:03:30;2.05;;;1.00;;
21034;SDS011;10676;50.848;3.272;2023-07-29T08:05:56;1.55;;;1.23;;
21034;SDS011;10676;50.848;3.272;2023-07-29T08:08:22;2.90;;;1.20;;
21034;SDS011;10676;50.848;3.272;2023-07-29T08:10:47;1.58;;;0.98;;
21034;SDS011;10676;50.848;3.272;2023-07-29T08:13:13;2.00;;;1.15;;
21034;SDS011;10676;50.848;3.272;2023-07-29T08:15:39;3.20;;;1.02;;
21034;SDS011;10676;50.848;3.272;2023-07-29T08:18:06;2.28;;;1.20;;
21034;SDS011;10676;50.848;3.272;2023-07-29T08:20:32;2.92;;;1.30;;
21034;SDS011;10676;50.848;3.272;2023-07-29T08:22:57;1.73;;;1.30;;
21034;SDS011;10676;50.848;3.272;2023-07-29T08:25:23;2.65;;;1.30;;
21034;SDS011;10676;50.848;3.272;2023-07-29T08:27:49;2.25;;;1.30;;
21034;SDS011;10676;50.848;3.272;2023-07-29T08:30:15;2.28;;;1.20;;
21034;SDS011;10676;50.848;3.272;2023-07-29T08:32:41;2.40;;;1.20;;
21034;SDS011;10676;50.848;3.272;2023-07-29T08:35:07;3.05;;;1.30;;
21034;SDS011;10676;50.848;3.272;2023-07-29T08:37:33;2.22;;;1.20;;
21034;SDS011;10676;50.848;3.272;2023-07-29T08:39:59;1.35;;;1.20;;
21034;SDS011;10676;50.848;3.272;2023-07-29T08:42:26;2.80;;;1.13;;
21034;SDS011;10676;50.848;3.272;2023-07-29T08:44:56;3.92;;;1.50;;
21034;SDS011;10676;50.848;3.272;2023-07-29T08:47:26;3.42;;;1.50;;
21034;SDS011;10676;50.848;3.272;2023-07-29T08:49:52;1.80;;;1.40;;
21034;SDS011;10676;50.848;3.272;2023-07-29T08:52:19;3.03;;;1.35;;
21034;SDS011;10676;50.848;3.272;2023-07-29T08:54:45;2.70;;;1.45;;
21034;SDS011;10676;50.848;3.272;2023-07-29T08:57:12;3.60;;;1.30;;
21034;SDS011;10676;50.848;3.272;2023-07-29T08:59:39;1.40;;;1.27;;
21034;SDS011;10676;50.848;3.272;2023-07-29T09:02:05;2.15;;;1.30;;
21034;SDS011;10676;50.848;3.272;2023-07-29T09:04:31;2.10;;;1.33;;
21034;SDS011;10676;50.848;3.272;2023-07-29T09:06:57;2.40;;;1.42;;
21034;SDS011;10676;50.848;3.272;2023-07-29T09:09:25;3.22;;;1.45;;
21034;SDS011;10676;50.848;3.272;2023-07-29T09:11:50;1.83;;;1.35;;
21034;SDS011;10676;50.848;3.272;2023-07-29T09:14:16;2.15;;;1.33;;
21034;SDS011;10676;50.848;3.272;2023-07-29T09:16:42;1.42;;;1.30;;
21034;SDS011;10676;50.848;3.272;2023-07-29T09:19:08;1.63;;;1.25;;
21034;SDS011;10676;50.848;3.272;2023-07-29T09:21:34;1.48;;;1.38;;
21034;SDS011;10676;50.848;3.272;2023-07-29T09:24:04;1.90;;;1.70;;
21034;SDS011;10676;50.848;3.272;2023-07-29T09:26:32;2.15;;;1.60;;
21034;SDS011;10676;50.848;3.272;2023-07-29T09:28:58;2.00;;;1.73;;
21034;SDS011;10676;50.848;3.272;2023-07-29T09:31:26;1.88;;;1.65;;
21034;SDS011;10676;50.848;3.272;2023-07-29T09:33:59;2.53;;;2.08;;
21034;SDS011;10676;50.848;3.272;2023-07-29T09:36:26;2.40;;;1.88;;
21034;SDS011;10676;50.848;3.272;2023-07-29T09:38:53;2.00;;;1.90;;
21034;SDS011;10676;50.848;3.272;2023-07-29T09:41:21;1.83;;;1.65;;
21034;SDS011;10676;50.848;3.272;2023-07-29T09:43:48;3.50;;;2.00;;
21034;SDS011;10676;50.848;3.272;2023-07-29T09:46:31;2.47;;;1.83;;
21034;SDS011;10676;50.848;3.272;2023-07-29T09:49:02;3.88;;;2.17;;
21034;SDS011;10676;50.848;3.272;2023-07-29T09:51:28;6.45;;;2.20;;
21034;SDS011;10676;50.848;3.272;2023-07-29T09:53:54;2.47;;;1.90;;
21034;SDS011;10676;50.848;3.272;2023-07-29T09:56:24;3.30;;;1.85;;
21034;SDS011;10676;50.848;3.272;2023-07-29T09:58:52;2.95;;;1.60;;
21034;SDS011;10676;50.848;3.272;2023-07-29T10:01:18;1.92;;;1.40;;
21034;SDS011;10676;50.848;3.272;2023-07-29T10:03:44;2.35;;;1.65;;
21034;SDS011;10676;50.848;3.272;2023-07-29T10:06:10;6.13;;;1.83;;
21034;SDS011;10676;50.848;3.272;2023-07-29T10:08:37;5.18;;;1.70;;
21034;SDS011;10676;50.848;3.272;2023-07-29T10:11:05;2.75;;;1.88;;
21034;SDS011;10676;50.848;3.272;2023-07-29T10:13:31;1.65;;;1.55;;
21034;SDS011;10676;50.848;3.272;2023-07-29T10:15:58;1.42;;;1.33;;
21034;SDS011;10676;50.848;3.272;2023-07-29T10:18:27;1.42;;;1.30;;
21034;SDS011;10676;50.848;3.272;2023-07-29T10:20:53;10.50;;;1.70;;
21034;SDS011;10676;50.848;3.272;2023-07-29T10:23:21;21.77;;;1.98;;
21034;SDS011;10676;50.848;3.272;2023-07-29T10:26:10;4.05;;;1.90;;
21034;SDS011;10676;50.848;3.272;2023-07-29T10:28:39;4.07;;;2.45;;
21034;SDS011;10676;50.848;3.272;2023-07-29T10:31:06;3.47;;;3.17;;
21034;SDS011;10676;50.848;3.272;2023-07-29T10:33:32;4.85;;;3.10;;
21034;SDS011;10676;50.848;3.272;2023-07-29T10:35:59;5.05;;;4.30;;
21034;SDS011;10676;50.848;3.272;2023-07-29T10:38:26;7.43;;;6.30;;
21034;SDS011;10676;50.848;3.272;2023-07-29T10:40:53;8.02;;;7.50;;
21034;SDS011;10676;50.848;3.272;2023-07-29T10:43:35;8.80;;;7.90;;
21034;SDS011;10676;50.848;3.272;2023-07-29T10:46:16;9.25;;;8.40;;
21034;SDS011;10676;50.848;3.272;2023-07-29T10:48:43;6.80;;;6.30;;
21034;SDS011;10676;50.848;3.272;2023-07-29T10:51:35;5.75;;;5.35;;
21034;SDS011;10676;50.848;3.272;2023-07-29T10:56:41;5.35;;;3.47;;
21034;SDS011;10676;50.848;3.272;2023-07-29T11:01:57;5.25;;;4.85;;
21034;SDS011;10676;50.848;3.272;2023-07-29T11:04:25;5.55;;;5.07;;
21034;SDS011;10676;50.848;3.272;2023-07-29T11:14:59;1.98;;;1.80;;
21034;SDS011;10676;50.848;3.272;2023-07-29T11:17:44;4.22;;;1.55;;
21034;SDS011;10676;50.848;3.272;2023-07-29T11:20:18;7.57;;;1.63;;
21034;SDS011;10676;50.848;3.272;2023-07-29T11:22:48;1.70;;;1.45;;
21034;SDS011;10676;50.848;3.272;2023-07-29T11:25:15;1.33;;;1.05;;
21034;SDS011;10676;50.848;3.272;2023-07-29T11:27:41;1.13;;;1.02;;
21034;SDS011;10676;50.848;3.272;2023-07-29T11:30:09;1.63;;;1.38;;
21034;SDS011;10676;50.848;3.272;2023-07-29T11:32:36;1.38;;;1.00;;
21034;SDS011;10676;50.848;3.272;2023-07-29T11:35:03;1.85;;;0.93;;
21034;SDS011;10676;50.848;3.272;2023-07-29T11:37:36;2.33;;;1.00;;
21034;SDS011;10676;50.848;3.272;2023-07-29T11:40:03;1.30;;;0.88;;
21034;SDS011;10676;50.848;3.272;2023-07-29T11:42:33;1.50;;;1.15;;
21034;SDS011;10676;50.848;3.272;2023-07-29T11:45:00;2.55;;;1.10;;
21034;SDS011;10676;50.848;3.272;2023-07-29T11:47:26;2.42;;;1.30;;
21034;SDS011;10676;50.848;3.272;2023-07-29T11:49:52;2.15;;;0.95;;
21034;SDS011;10676;50.848;3.272;2023-07-29T11:52:18;2.10;;;1.10;;
21034;SDS011;10676;50.848;3.272;2023-07-29T11:54:45;3.80;;;1.00;;
21034;SDS011;10676;50.848;3.272;2023-07-29T11:57:12;1.27;;;0.77;;
21034;SDS011;10676;50.848;3.272;2023-07-29T11:59:40;1.05;;;0.77;;
21034;SDS011;10676;50.848;3.272;2023-07-29T12:02:10;2.05;;;0.70;;
21034;SDS011;10676;50.848;3.272;2023-07-29T12:04:38;2.15;;;0.80;;
21034;SDS011;10676;50.848;3.272;2023-07-29T12:07:05;3.33;;;0.80;;
21034;SDS011;10676;50.848;3.272;2023-07-29T12:09:31;1.30;;;0.93;;
21034;SDS011;10676;50.848;3.272;2023-07-29T12:11:58;1.95;;;0.80;;
21034;SDS011;10676;50.848;3.272;2023-07-29T12:14:26;1.23;;;0.80;;
21034;SDS011;10676;50.848;3.272;2023-07-29T12:16:53;1.73;;;1.20;;
21034;SDS011;10676;50.848;3.272;2023-07-29T12:19:18;4.95;;;1.10;;
21034;SDS011;10676;50.848;3.272;2023-07-29T12:21:44;1.90;;;0.85;;
21034;SDS011;10676;50.848;3.272;2023-07-29T12:24:13;1.13;;;0.90;;
21034;SDS011;10676;50.848;3.272;2023-07-29T12:26:42;2.10;;;0.93;;
21034;SDS011;10676;50.848;3.272;2023-07-29T12:29:12;0.90;;;0.63;;
21034;SDS011;10676;50.848;3.272;2023-07-29T12:31:39;0.60;;;0.40;;
21034;SDS011;10676;50.848;3.272;2023-07-29T12:34:05;1.95;;;0.70;;
21034;SDS011;10676;50.848;3.272;2023-07-29T12:36:43;0.95;;;0.45;;
21034;SDS011;10676;50.848;3.272;2023-07-29T12:41:58;0.90;;;0.60;;
21034;SDS011;10676;50.848;3.272;2023-07-29T12:44:25;1.42;;;0.60;;
21034;SDS011;10676;50.848;3.272;2023-07-29T12:46:59;0.65;;;0.50;;
21034;SDS011;10676;50.848;3.272;2023-07-29T12:49:26;1.17;;;0.47;;
21034;SDS011;10676;50.848;3.272;2023-07-29T12:51:53;0.95;;;0.52;;
21034;SDS011;10676;50.848;3.272;2023-07-29T12:54:19;0.68;;;0.63;;
21034;SDS011;10676;50.848;3.272;2023-07-29T12:56:44;0.40;;;0.40;;
21034;SDS011;10676;50.848;3.272;2023-07-29T12:59:10;1.98;;;0.32;;
21034;SDS011;10676;50.848;3.272;2023-07-29T13:01:36;1.30;;;0.60;;
21034;SDS011;10676;50.848;3.272;2023-07-29T13:04:01;1.70;;;0.55;;
21034;SDS011;10676;50.848;3.272;2023-07-29T13:06:27;1.15;;;0.50;;
21034;SDS011;10676;50.848;3.272;2023-07-29T13:08:52;2.78;;;0.45;;
21034;SDS011;10676;50.848;3.272;2023-07-29T13:11:18;0.77;;;0.60;;
21034;SDS011;10676;50.848;3.272;2023-07-29T13:13:44;3.22;;;1.00;;
21034;SDS011;10676;50.848;3.272;2023-07-29T13:16:10;1.00;;;0.60;;
21034;SDS011;10676;50.848;3.272;2023-07-29T13:18:37;2.83;;;0.90;;
21034;SDS011;10676;50.848;3.272;2023-07-29T13:21:03;2.22;;;1.13;;
21034;SDS011;10676;50.848;3.272;2023-07-29T13:23:28;1.98;;;1.02;;
21034;SDS011;10676;50.848;3.272;2023-07-29T13:25:55;1.92;;;0.90;;
21034;SDS011;10676;50.848;3.272;2023-07-29T13:28:21;1.40;;;0.80;;
21034;SDS011;10676;50.848;3.272;2023-07-29T13:30:47;0.80;;;0.80;;
21034;SDS011;10676;50.848;3.272;2023-07-29T13:33:12;1.20;;;0.80;;
21034;SDS011;10676;50.848;3.272;2023-07-29T13:35:38;2.35;;;1.00;;
21034;SDS011;10676;50.848;3.272;2023-07-29T13:38:04;1.05;;;0.70;;
21034;SDS011;10676;50.848;3.272;2023-07-29T13:40:29;2.08;;;0.82;;
21034;SDS011;10676;50.848;3.272;2023-07-29T13:42:55;1.27;;;0.90;;
21034;SDS011;10676;50.848;3.272;2023-07-29T13:45:21;1.52;;;0.80;;
21034;SDS011;10676;50.848;3.272;2023-07-29T13:47:48;0.80;;;0.63;;
21034;SDS011;10676;50.848;3.272;2023-07-29T13:50:15;0.85;;;0.70;;
21034;SDS011;10676;50.848;3.272;2023-07-29T13:52:41;1.42;;;0.80;;
21034;SDS011;10676;50.848;3.272;2023-07-29T13:55:06;1.40;;;0.55;;
21034;SDS011;10676;50.848;3.272;2023-07-29T13:57:33;0.60;;;0.60;;
21034;SDS011;10676;50.848;3.272;2023-07-29T13:59:58;0.70;;;0.60;;
21034;SDS011;10676;50.848;3.272;2023-07-29T14:02:24;0.75;;;0.70;;
21034;SDS011;10676;50.848;3.272;2023-07-29T14:04:53;0.60;;;0.60;;
21034;SDS011;10676;50.848;3.272;2023-07-29T14:07:19;1.13;;;0.70;;
21034;SDS011;10676;50.848;3.272;2023-07-29T14:09:45;0.80;;;0.60;;
21034;SDS011;10676;50.848;3.272;2023-07-29T14:12:11;1.50;;;0.60;;
21034;SDS011;10676;50.848;3.272;2023-07-29T14:14:39;0.50;;;0.50;;
21034;SDS011;10676;50.848;3.272;2023-07-29T14:17:05;0.60;;;0.55;;
21034;SDS011;10676;50.848;3.272;2023-07-29T14:19:32;0.68;;;0.50;;
21034;SDS011;10676;50.848;3.272;2023-07-29T14:21:58;1.67;;;0.73;;
21034;SDS011;10676;50.848;3.272;2023-07-29T14:24:23;1.40;;;0.75;;
21034;SDS011;10676;50.848;3.272;2023-07-29T14:26:49;0.90;;;0.60;;
21034;SDS011;10676;50.848;3.272;2023-07-29T14:29:15;0.52;;;0.43;;
21034;SDS011;10676;50.848;3.272;2023-07-29T14:31:40;1.27;;;0.60;;
21034;SDS011;10676;50.848;3.272;2023-07-29T14:34:06;1.10;;;0.70;;
21034;SDS011;10676;50.848;3.272;2023-07-29T14:36:32;1.90;;;0.70;;
21034;SDS011;10676;50.848;3.272;2023-07-29T14:38:57;2.97;;;0.80;;
21034;SDS011;10676;50.848;3.272;2023-07-29T14:41:23;1.38;;;0.90;;
21034;SDS011;10676;50.848;3.272;2023-07-29T14:43:49;2.15;;;1.15;;
21034;SDS011;10676;50.848;3.272;2023-07-29T14:46:15;2.83;;;0.80;;
21034;SDS011;10676;50.848;3.272;2023-07-29T14:48:40;3.65;;;1.10;;
21034;SDS011;10676;50.848;3.272;2023-07-29T14:51:06;2.38;;;1.20;;
21034;SDS011;10676;50.848;3.272;2023-07-29T14:53:32;4.00;;;1.30;;
21034;SDS011;10676;50.848;3.272;2023-07-29T14:55:58;5.53;;;1.40;;
21034;SDS011;10676;50.848;3.272;2023-07-29T14:58:23;2.67;;;1.20;;
21034;SDS011;10676;50.848;3.272;2023-07-29T15:00:50;1.95;;;1.15;;
21034;SDS011;10676;50.848;3.272;2023-07-29T15:03:17;5.55;;;1.33;;
21034;SDS011;10676;50.848;3.272;2023-07-29T15:05:42;2.47;;;0.95;;
21034;SDS011;10676;50.848;3.272;2023-07-29T15:08:08;3.17;;;1.40;;
21034;SDS011;10676;50.848;3.272;2023-07-29T15:10:34;5.47;;;1.30;;